Latest Weather Observations for Mount Read

IDT60801

Issued at 12:31 pm EDT Thursday 2 April 2015 (issued every 30 minutes, with the page automatically refreshed every 10 minutes)

About weather observations | Map of weather stations | Latest weather observations for TAS | Other Formats
Station Details ID: 097085 Name: MOUNT READ Lat: -41.84 Lon: 145.54 Height: 1119.5 m
Data from the previous 72 hours. | See also: Recent months at Mount Read
Date/Time
EDT
Temp
°C
App
Temp
°C
Dew
Point
Rel
Hum
%
Delta-T
°C
Wind Press
QNH
hPa
Press
MSL
hPa
Rain
since 9 am
mm
Dir
 
Spd
km/h
Gust
km/h
Spd
kts
Gust
kts
02/12:30pm 2.4 -8.3 2.3 99 0.0 S 48 59 26 32 1018.5 1018.7 1.0
02/12:00pm 2.4 -10.1 2.3 99 0.0 S 57 72 31 39 1018.0 1018.2 1.0
02/11:33am 1.9 -12.2 1.8 99 0.0 S 65 83 35 45 1017.3 1017.5 1.0
02/11:30am 1.8 -12.6 1.7 99 0.0 S 67 83 36 45 1017.2 1017.4 1.0
02/11:01am 1.7 -12.4 1.6 99 0.0 S 65 85 35 46 1016.7 1016.9 1.0
02/11:00am 1.7 -12.8 1.6 99 0.0 S 67 85 36 46 1016.7 1016.9 1.0
02/10:51am 1.8 -11.5 1.7 99 0.0 S 61 85 33 46 1016.8 1017.0 0.8
02/10:30am 1.9 -11.8 1.8 99 0.0 S 63 78 34 42 1016.7 1016.9 0.6
02/10:01am 1.8 -12.3 1.7 99 0.0 S 65 83 35 45 1016.0 1016.2 0.2
02/10:00am 1.8 -12.6 1.7 99 0.0 S 67 83 36 45 1015.9 1016.1 0.2
02/09:30am 1.7 -12.4 1.6 99 0.0 S 65 85 35 46 1014.9 1015.0 0.2
02/09:27am 1.8 -12.3 1.7 99 0.0 S 65 83 35 45 1014.8 1014.9 0.2
02/09:00am 1.6 -12.9 1.5 99 0.0 S 67 82 36 44 1014.0 1014.1 18.6
02/08:34am 1.4 -14.4 1.3 99 0.0 S 74 93 40 50 1012.7 1012.7 18.4
02/08:30am 1.3 -15.3 1.2 99 0.0 S 78 95 42 51 1012.5 1012.6 18.4
02/08:00am 1.3 -15.7 1.2 99 0.0 S 80 100 43 54 1011.3 1011.4 18.0
02/07:52am 2.0 -14.1 1.9 99 0.0 S 76 96 41 52 1011.1 1011.1 17.8
02/07:30am 2.5 -12.2 2.4 99 0.0 S 69 83 37 45 1010.6 1010.7 17.2
02/07:00am 2.9 -12.7 2.8 99 0.0 S 74 87 40 47 1009.8 1009.8 16.0
02/06:30am 2.8 -12.4 2.7 99 0.0 S 72 85 39 46 1009.2 1009.2 14.8
02/06:00am 2.7 -13.7 2.6 99 0.0 S 78 91 42 49 1008.8 1008.7 14.2
02/05:44am 3.0 -12.2 2.9 99 0.0 S 72 91 39 49 1008.4 1008.4 14.0
02/05:30am 3.1 -12.1 3.0 99 0.0 S 72 85 39 46 1008.1 1008.0 13.8
02/05:00am 3.2 -12.3 3.1 99 0.0 SSW 74 91 40 49 1007.5 1007.5 13.6
02/04:49am 3.3 -12.2 3.2 99 0.0 SSW 74 93 40 50 1007.4 1007.4 13.4
02/04:30am 3.8 -11.6 3.7 99 0.0 SSW 74 87 40 47 1007.0 1006.9 13.2
02/04:07am 4.5 -7.9 4.4 99 0.0 SSW 59 78 32 42 1007.3 1007.2 12.4
02/04:00am 4.8 -7.2 4.7 99 0.0 SSW 57 70 31 38 1007.3 1007.2 12.2
02/03:58am 4.8 -7.0 4.7 99 0.0 SSW 56 70 30 38 1007.3 1007.2 12.0
02/03:52am 5.2 -3.7 5.1 99 0.0 SSW 41 67 22 36 1007.6 1007.6 12.0
02/03:45am 5.9 0.4 5.8 99 0.0 SW 24 44 13 24 1008.1 1008.0 11.4
02/03:30am 6.4 2.7 6.3 99 0.0 WSW 15 19 8 10 1008.4 1008.4 11.0
02/03:00am 6.5 4.3 6.4 99 0.0 W 7 15 4 8 1008.6 1008.6 10.8
02/02:30am 6.4 2.3 6.3 99 0.0 W 17 22 9 12 1008.8 1008.7 10.6
02/02:00am 6.3 3.0 6.2 99 0.0 WSW 13 24 7 13 1009.0 1009.0 10.6
02/01:30am 6.5 2.4 6.4 99 0.0 WSW 17 28 9 15 1009.1 1009.1 10.6
02/01:00am 6.7 1.7 6.6 99 0.0 W 22 32 12 17 1009.4 1009.4 10.6
02/12:30am 6.8 0.0 6.8 100 0.0 W 32 41 17 22 1009.4 1009.4 9.8
02/12:00am 7.0 -1.1 7.0 100 0.0 W 39 52 21 28 1009.6 1009.6 9.2
 
Date/Time
EDT
Temp
°C
App
Temp
°C
Dew
Point
Rel
Hum
%
Delta-T
°C
Wind Press
QNH
hPa
Press
MSL
hPa
Rain
since 9 am
mm
Dir
 
Spd
km/h
Gust
km/h
Spd
kts
Gust
kts
01/11:46pm 8.5 1.9 8.5 100 0.0 WNW 33 59 18 32 1009.6 1009.6 8.8
01/11:32pm 9.3 3.5 9.3 100 0.0 NNW 30 54 16 29 1009.3 1009.3 7.6
01/11:30pm 9.4 4.0 9.4 100 0.0 NNW 28 43 15 23 1009.3 1009.3 7.4
01/11:00pm 9.4 1.9 9.4 100 0.0 NNW 39 61 21 33 1008.9 1008.8 2.0
01/10:30pm 9.3 1.4 9.3 100 0.0 NNW 41 63 22 34 1009.3 1009.3 1.2
01/10:00pm 9.5 1.0 9.4 99 0.1 NNW 44 69 24 37 1009.6 1009.6 1.0
01/09:35pm 10.2 2.2 9.0 92 0.6 NNW 41 61 22 33 1009.3 1009.3 1.0
01/09:30pm 10.0 2.0 9.1 94 0.5 NNW 41 52 22 28 1009.3 1009.3 1.0
01/09:09pm 9.9 2.6 8.8 93 0.6 NNW 37 59 20 32 1009.0 1009.0 1.0
01/09:00pm 9.7 2.1 9.1 96 0.3 N 39 50 21 27 1009.1 1009.1 1.0
01/08:30pm 9.6 1.7 9.5 99 0.1 NNW 41 57 22 31 1009.6 1009.6 1.0
01/08:18pm 9.8 2.3 9.5 98 0.2 NNW 39 57 21 31 1009.5 1009.5 1.0
01/08:00pm 9.6 2.9 9.5 99 0.1 NNW 35 48 19 26 1010.0 1010.0 0.8
01/07:30pm 9.5 3.7 9.4 99 0.1 NNW 30 44 16 24 1010.5 1010.6 0.6
01/07:00pm 9.8 3.5 9.7 99 0.1 NNW 33 46 18 25 1011.4 1011.5 0.2
01/06:34pm 10.6 5.1 9.0 90 0.8 NNW 28 48 15 26 1011.5 1011.6 0.0
01/06:30pm 10.9 6.5 8.8 87 1.1 NNW 22 37 12 20 1011.6 1011.7 0.0
01/06:00pm 11.6 5.3 8.8 83 1.5 NNW 32 46 17 25 1011.5 1011.6 0.0
01/05:30pm 12.5 4.7 8.2 75 2.3 NNW 39 67 21 36 1011.2 1011.2 0.0
01/05:00pm 13.3 4.0 7.7 69 2.9 NNW 46 78 25 42 1011.2 1011.2 0.0
01/04:42pm 13.4 6.0 8.5 72 2.6 NNW 37 80 20 43 1011.4 1011.5 0.0
01/04:41pm 13.4 6.6 9.1 75 2.3 NNW 35 59 19 32 1011.5 1011.6 0.0
01/04:30pm 13.3 5.6 10.1 81 1.8 NNW 41 54 22 29 1011.6 1011.7 0.0
01/04:00pm 13.5 7.5 10.7 83 1.6 N 33 46 18 25 1011.6 1011.7 0.0
01/03:30pm 13.2 8.2 11.1 87 1.2 N 28 41 15 22 1012.3 1012.4 0.0
01/03:00pm 13.2 8.0 11.6 90 0.9 N 30 37 16 20 1013.0 1013.1 0.0
01/02:30pm 12.6 6.3 11.0 90 0.9 N 35 48 19 26 1013.2 1013.3 0.0
01/02:10pm 12.9 7.5 11.0 88 1.1 N 30 50 16 27 1013.5 1013.6 0.0
01/02:00pm 12.7 6.8 10.6 87 1.2 N 32 43 17 23 1013.8 1013.9 0.0
01/01:30pm 12.2 6.6 10.3 88 1.0 N 30 43 16 23 1014.4 1014.6 0.0
01/01:09pm 12.5 6.4 9.9 84 1.4 N 32 52 17 28 1014.8 1014.9 0.0
01/01:00pm 12.5 6.6 10.4 87 1.2 N 32 44 17 24 1015.0 1015.1 0.0
01/12:30pm 12.1 5.9 10.2 88 1.0 N 33 50 18 27 1015.4 1015.6 0.0
01/12:00pm 11.6 5.2 9.5 87 1.1 N 33 43 18 23 1016.0 1016.2 0.0
01/11:30am 11.7 5.3 9.4 86 1.2 N 33 48 18 26 1016.4 1016.6 0.0
01/11:05am 11.6 5.4 9.2 85 1.3 N 32 50 17 27 1016.6 1016.7 0.0
01/11:00am 11.8 5.7 9.7 87 1.1 N 32 50 17 27 1016.7 1016.9 0.0
01/10:30am 11.8 5.4 9.4 85 1.3 N 33 56 18 30 1017.1 1016.1 0.0
01/10:25am 11.8 5.0 9.2 84 1.4 N 35 56 19 30 1017.0 1016.0 0.0
01/10:00am 10.2 3.6 8.5 89 0.9 N 33 46 18 25 1017.6 1016.6 0.0
01/09:30am 10.7 3.2 8.1 84 1.3 N 37 50 20 27 1017.4 1016.4 0.0
01/09:00am 10.0 2.9 8.1 88 1.0 N 35 52 19 28 1017.4 1016.4 0.4
01/08:30am 9.2 2.1 8.1 93 0.6 N 35 41 19 22 1017.8 1016.8 0.4
01/08:00am 8.0 1.4 7.7 98 0.2 N 32 41 17 22 1017.8 1016.8 0.4
01/07:30am 8.0 1.8 7.9 99 0.1 N 30 35 16 19 1017.9 1016.9 0.4
01/07:00am 7.9 2.1 7.8 99 0.1 N 28 33 15 18 1018.1 1017.1 0.4
01/06:30am 8.4 3.1 8.4 100 0.0 N 26 33 14 18 1018.3 1017.4 0.4
01/06:00am 8.1 2.3 8.1 100 0.0 N 28 35 15 19 1018.6 1017.6 0.4
01/05:30am 7.7 0.9 7.7 100 0.0 N 33 39 18 21 1018.5 1017.5 0.4
01/05:00am 7.3 1.0 7.3 100 0.0 N 30 35 16 19 1018.8 1017.8 0.4
01/04:30am 6.8 -0.2 6.8 100 0.0 N 33 39 18 21 1019.1 1018.2 0.4
01/04:00am 6.9 0.1 6.9 100 0.0 N 32 37 17 20 1019.5 1018.5 0.4
01/03:30am 7.0 1.0 7.0 100 0.0 N 28 37 15 20 1020.0 1019.1 0.4
01/03:00am 7.0 1.7 7.0 100 0.0 N 24 30 13 16 1020.5 1019.5 0.4
01/02:30am 7.0 1.7 7.0 100 0.0 N 24 32 13 17 1020.7 1019.8 0.4
01/02:00am 7.0 1.7 7.0 100 0.0 N 24 30 13 16 1021.0 1020.1 0.4
01/01:30am 7.1 1.1 7.1 100 0.0 NNW 28 33 15 18 1021.6 1020.7 0.4
01/01:00am 7.0 2.1 7.0 100 0.0 NNW 22 30 12 16 1021.8 1020.9 0.2
01/12:30am 7.1 2.2 7.1 100 0.0 NNW 22 26 12 14 1021.9 1021.0 0.2
01/12:00am 7.1 1.9 7.1 100 0.0 NNW 24 32 13 17 1022.0 1021.1 0.2
 
Date/Time
EDT
Temp
°C
App
Temp
°C
Dew
Point
Rel
Hum
%
Delta-T
°C
Wind Press
QNH
hPa
Press
MSL
hPa
Rain
since 9 am
mm
Dir
 
Spd
km/h
Gust
km/h
Spd
kts
Gust
kts
31/11:30pm 6.9 1.2 6.9 100 0.0 NNW 26 33 14 18 1022.4 1021.5 0.2
31/11:00pm 7.2 2.8 7.2 100 0.0 NNW 20 28 11 15 1022.6 1021.7 0.2
31/10:30pm 7.8 2.7 7.8 100 0.0 N 24 28 13 15 1022.9 1022.0 0.2
31/10:00pm 8.0 3.4 8.0 100 0.0 N 22 26 12 14 1023.0 1022.2 0.0
31/09:30pm 8.2 3.2 8.2 100 0.0 N 24 28 13 15 1023.2 1022.4 0.0
31/09:00pm 8.4 3.9 8.4 100 0.0 N 22 28 12 15 1023.0 1022.2 0.0
31/08:30pm 8.3 4.1 8.3 100 0.0 N 20 24 11 13 1023.1 1022.3 0.0
31/08:00pm 8.4 4.4 8.4 100 0.0 NNW 19 22 10 12 1023.1 1022.3 0.0
31/07:30pm 8.7 5.2 8.7 100 0.0 NNW 17 20 9 11 1023.0 1022.2 0.0
31/07:00pm 8.8 4.9 8.8 100 0.0 NNW 19 20 10 11 1022.8 1021.9 0.0
31/06:30pm 9.2 5.4 9.2 100 0.0 NNW 19 20 10 11 1022.8 1021.9 0.0
31/06:00pm 9.1 5.1 9.1 100 0.0 NNW 20 24 11 13 1022.8 1021.9 0.0
31/05:30pm 10.0 7.2 10.0 100 0.0 NNW 15 20 8 11 1023.0 1022.2 0.0
31/05:00pm 10.5 7.8 10.5 100 0.0 NNW 15 19 8 10 1023.0 1022.2 0.0
31/04:30pm 10.9 8.0 10.9 100 0.0 NW 17 22 9 12 1023.2 1022.4 0.0
31/04:00pm 9.5 6.6 9.5 100 0.0 NNW 15 20 8 11 1023.4 1022.5 0.0
31/03:30pm 9.6 7.1 9.6 100 0.0 NW 13 20 7 11 1023.7 1022.8 0.0
31/03:00pm 9.2 6.6 9.2 100 0.0 NNW 13 19 7 10 1023.8 1023.0 0.0
31/02:30pm 8.8 5.3 8.8 100 0.0 NW 17 20 9 11 1023.8 1023.0 0.0
31/02:00pm 8.7 5.6 8.7 100 0.0 NNW 15 20 8 11 1024.4 1023.5 0.0
31/01:30pm 9.0 6.3 9.0 100 0.0 NNW 13 20 7 11 1024.4 1023.5 0.0
31/01:00pm 8.3 6.6 8.3 100 0.0 NNW 7 13 4 7 1025.0 1024.2 0.0
31/12:30pm 8.3 6.6 8.3 100 0.0 NW 7 13 4 7 1025.0 1024.2 0.0
31/12:00pm 7.8 4.4 7.8 100 0.0 WNW 15 20 8 11 1025.3 1024.4 0.0
31/11:30am 7.4 3.2 7.4 100 0.0 WNW 19 28 10 15 1025.3 1024.4 0.0
31/11:00am 7.3 3.4 7.3 100 0.0 NW 17 20 9 11 1025.3 1024.4 0.0
31/10:30am 7.0 2.7 7.0 100 0.0 NW 19 24 10 13 1025.1 1024.3 0.0
31/10:00am 6.8 2.8 6.8 100 0.0 NW 17 19 9 10 1025.0 1024.2 0.0
31/09:30am 6.6 2.6 6.6 100 0.0 NNW 17 20 9 11 1025.0 1024.2 0.0
31/09:00am 6.4 2.3 6.4 100 0.0 NNW 17 20 9 11 1025.0 1024.2 3.8
31/08:30am 6.1 1.6 6.1 100 0.0 NNW 19 24 10 13 1024.8 1024.0 3.8
31/08:00am 6.0 0.9 5.9 99 0.0 NW 22 26 12 14 1024.7 1023.9 3.8
31/07:30am 5.8 0.6 5.7 99 0.0 NW 22 24 12 13 1024.6 1023.8 3.6
31/07:00am 5.6 0.8 5.5 99 0.0 NW 20 24 11 13 1024.1 1023.3 3.6
31/06:30am 5.6 1.0 5.5 99 0.0 WNW 19 26 10 14 1023.9 1023.1 3.6
31/06:00am 5.6 1.0 5.5 99 0.0 WNW 19 24 10 13 1023.8 1023.0 3.6
31/05:30am 5.4 1.1 5.3 99 0.0 WNW 17 22 9 12 1023.7 1022.8 3.6
31/05:00am 5.3 1.0 5.2 99 0.0 WNW 17 22 9 12 1023.7 1022.8 3.4
31/04:30am 5.4 0.7 5.3 99 0.0 WNW 19 26 10 14 1023.8 1023.0 3.4
31/04:00am 5.1 1.5 5.0 99 0.0 NW 13 17 7 9 1023.9 1023.1 3.4
31/03:30am 5.2 1.6 5.1 99 0.0 WNW 13 17 7 9 1024.0 1023.2 3.4
31/03:00am 5.2 1.6 5.1 99 0.0 NW 13 15 7 8 1024.1 1023.3 3.4
31/02:30am 5.3 1.7 5.2 99 0.0 NW 13 17 7 9 1024.2 1023.4 3.4
31/02:00am 5.3 1.7 5.2 99 0.0 NW 13 17 7 9 1024.2 1023.4 3.2
31/01:30am 5.3 1.7 5.2 99 0.0 NW 13 17 7 9 1024.1 1023.3 3.2
31/01:00am 5.3 2.9 5.2 99 0.0 NW 7 13 4 7 1024.4 1023.5 3.2
31/12:30am 5.5 2.0 5.4 99 0.0 NW 13 19 7 10 1024.4 1023.5 3.2
31/12:00am 5.6 1.7 5.5 99 0.0 NNW 15 19 8 10 1024.5 1023.6 3.2
 
Date/Time
EDT
Temp
°C
App
Temp
°C
Dew
Point
Rel
Hum
%
Delta-T
°C
Wind Press
QNH
hPa
Press
MSL
hPa
Rain
since 9 am
mm
Dir
 
Spd
km/h
Gust
km/h
Spd
kts
Gust
kts
30/11:30pm 5.5 2.8 5.4 99 0.0 NNW 9 19 5 10 1024.7 1023.9 3.2
30/11:00pm 5.4 2.2 5.3 99 0.0 NW 11 19 6 10 1024.7 1023.9 3.2
30/10:30pm 5.2 1.6 5.1 99 0.0 WNW 13 17 7 9 1024.8 1024.0 3.2
30/10:00pm 5.3 1.7 5.2 99 0.0 WNW 13 17 7 9 1024.7 1023.9 3.2
30/09:30pm 5.3 1.4 5.2 99 0.0 WNW 15 20 8 11 1024.6 1023.8 3.2
30/09:00pm 5.2 1.2 5.1 99 0.0 WNW 15 22 8 12 1024.7 1023.9 3.2
30/08:30pm 5.6 1.4 5.5 99 0.0 WNW 17 24 9 13 1024.2 1023.4 3.2
30/08:00pm 5.8 2.0 5.8 100 0.0 WNW 15 20 8 11 1024.0 1023.2 3.2
30/07:30pm 5.7 1.9 5.7 100 0.0 WNW 15 24 8 13 1023.6 1022.7 3.2
30/07:00pm 6.0 2.2 6.0 100 0.0 WNW 15 24 8 13 1023.2 1022.4 3.2
30/06:30pm 6.4 2.3 6.4 100 0.0 W 17 24 9 13 1022.9 1022.0 3.2
30/06:00pm 6.8 2.8 6.8 100 0.0 WNW 17 24 9 13 1022.7 1021.8 3.2
30/05:30pm 6.9 3.0 6.9 100 0.0 WNW 17 28 9 15 1022.5 1021.6 3.2
30/05:00pm 6.7 2.1 6.7 100 0.0 WNW 20 30 11 16 1022.5 1021.6 3.2
30/04:30pm 7.2 2.4 7.2 100 0.0 WNW 22 32 12 17 1022.2 1021.4 3.2
30/04:00pm 6.9 2.4 6.9 100 0.0 WNW 20 35 11 19 1022.1 1021.2 3.2
30/03:30pm 7.7 2.2 7.7 100 0.0 WNW 26 37 14 20 1022.4 1021.5 3.2
30/03:00pm 7.3 1.4 7.3 100 0.0 WNW 28 37 15 20 1022.0 1021.1 3.2
30/02:30pm 7.6 2.5 7.6 100 0.0 NW 24 39 13 21 1021.7 1020.8 3.2
30/02:00pm 7.2 1.2 7.2 100 0.0 NW 28 39 15 21 1021.6 1020.7 3.2
30/01:30pm 7.3 2.9 7.3 100 0.0 NW 20 32 11 17 1021.9 1021.0 3.2
30/01:00pm 7.0 3.5 7.0 100 0.0 NW 15 30 8 16 1022.1 1021.2 3.2

Other Formats:

Comma delimited format used in spreadsheet applications
http://www.bom.gov.au/fwo/IDT60801/IDT60801.95952.axf

JavaScript Object Notation format (JSON) in row-major order
http://www.bom.gov.au/fwo/IDT60801/IDT60801.95952.json